Time;durP1;ratioP1;P1;durP2;ratioP2;P2;SDS_P1;SDS_P2;PMS_P1;PMS_P2;Temp;Humidity;BMP_temperature;BMP_pressure;BME280_temperature;BME280_humidity;BME280_pressure;Samples;Min_cycle;Max_cycle;Signal;HPM_P1;HPM_P2
2021/05/27 00:02:07;;;;;;;4.77;3.87;;;14.30;99.90;;;;;;5051899;28;20238;-81
2021/05/27 00:04:33;;;;;;;5.57;3.78;;;14.30;99.90;;;;;;5051760;28;20161;-81
2021/05/27 00:06:59;;;;;;;5.78;4.00;;;14.40;99.90;;;;;;5051449;28;20173;-81
2021/05/27 00:09:25;;;;;;;5.73;3.33;;;14.30;99.90;;;;;;5033513;28;20226;-81
2021/05/27 00:11:51;;;;;;;3.97;3.57;;;14.30;99.90;;;;;;5051700;28;20582;-80
2021/05/27 00:14:17;;;;;;;5.57;4.40;;;14.30;99.90;;;;;;5051804;28;20667;-81
2021/05/27 00:16:42;;;;;;;3.90;3.53;;;14.30;99.90;;;;;;5051264;28;20567;-80
2021/05/27 00:19:08;;;;;;;5.83;3.80;;;14.30;99.90;;;;;;5017275;28;20268;-80
2021/05/27 00:21:34;;;;;;;4.60;3.85;;;14.30;99.90;;;;;;5051610;28;20215;-80
2021/05/27 00:24:00;;;;;;;3.73;3.40;;;14.30;99.90;;;;;;5065945;28;20203;-80
2021/05/27 00:26:25;;;;;;;7.07;5.53;;;14.30;99.90;;;;;;5062652;28;20241;-81
2021/05/27 00:28:53;;;;;;;4.80;4.30;;;14.30;99.90;;;;;;5071260;28;20255;-81
2021/05/27 00:31:19;;;;;;;4.10;3.80;;;14.30;99.90;;;;;;5071474;28;20249;-80
2021/05/27 00:33:44;;;;;;;6.77;4.60;;;14.30;99.90;;;;;;5036785;28;20598;-81
2021/05/27 00:36:10;;;;;;;4.50;4.03;;;14.30;99.90;;;;;;5061688;28;20164;-81
2021/05/27 00:38:36;;;;;;;5.70;3.93;;;14.30;99.90;;;;;;5071097;28;20180;-81
2021/05/27 00:41:02;;;;;;;5.60;4.70;;;14.30;99.90;;;;;;5053481;28;20180;-81
2021/05/27 00:43:27;;;;;;;7.18;4.28;;;14.30;99.90;;;;;;5071047;28;20204;-81
2021/05/27 00:45:53;;;;;;;4.33;3.93;;;14.30;99.90;;;;;;5053593;28;20274;-80
2021/05/27 00:51:04;;;;;;;5.10;4.07;;;14.30;99.90;;;;;;5053354;28;20243;-80
2021/05/27 00:53:30;;;;;;;5.85;4.82;;;14.30;99.90;;;;;;5053058;28;20195;-80
2021/05/27 00:55:56;;;;;;;6.80;4.25;;;14.30;99.90;;;;;;5053402;28;20172;-80
2021/05/27 00:58:23;;;;;;;5.40;4.50;;;14.30;99.90;;;;;;5070726;28;20182;-81
2021/05/27 01:00:50;;;;;;;4.95;4.50;;;14.30;99.90;;;;;;5052987;28;20175;-81
2021/05/27 01:03:17;;;;;;;5.00;4.10;;;14.30;99.90;;;;;;5053129;28;20567;-80
2021/05/27 01:05:43;;;;;;;7.20;4.80;;;14.30;99.90;;;;;;5053066;28;20234;-81
2021/05/27 01:08:09;;;;;;;5.35;4.85;;;14.20;99.90;;;;;;5052737;28;20167;-81
2021/05/27 01:10:36;;;;;;;9.00;6.55;;;14.30;99.90;;;;;;5053133;28;20164;-81
2021/05/27 01:13:04;;;;;;;5.55;4.65;;;14.30;99.90;;;;;;5024993;28;20279;-80
2021/05/27 01:15:31;;;;;;;5.13;4.03;;;14.30;99.90;;;;;;5036627;28;20686;-80
2021/05/27 01:18:08;;;;;;;4.60;4.20;;;14.30;99.90;;;;;;5052639;28;20168;-80
2021/05/27 01:20:35;;;;;;;6.72;4.97;;;14.30;99.90;;;;;;5053254;28;20164;-80
2021/05/27 01:23:02;;;;;;;6.43;5.68;;;14.30;99.90;;;;;;5056856;28;20200;-81
2021/05/27 01:25:30;;;;;;;6.35;4.57;;;14.30;99.90;;;;;;5056639;28;20603;-80
2021/05/27 01:27:57;;;;;;;4.70;4.20;;;14.30;99.90;;;;;;5039764;28;20255;-80
2021/05/27 01:30:23;;;;;;;5.15;4.65;;;14.30;99.90;;;;;;5056919;28;20640;-80
2021/05/27 01:32:50;;;;;;;5.40;4.13;;;14.30;99.90;;;;;;5039892;28;20279;-80
2021/05/27 01:35:20;;;;;;;5.13;4.63;;;14.30;99.90;;;;;;5074400;28;20172;-79
2021/05/27 01:37:46;;;;;;;6.45;4.95;;;14.30;99.90;;;;;;5055788;28;20618;-79
2021/05/27 01:40:14;;;;;;;5.18;4.68;;;14.30;99.90;;;;;;5039613;28;20180;-80
2021/05/27 01:42:40;;;;;;;5.38;4.90;;;14.30;99.90;;;;;;5073871;28;20211;-80
2021/05/27 01:45:08;;;;;;;5.70;5.22;;;14.30;99.90;;;;;;5056264;28;20176;-81
2021/05/27 01:47:34;;;;;;;8.88;5.40;;;14.30;99.90;;;;;;5074203;28;20172;-81
2021/05/27 01:50:00;;;;;;;5.57;4.97;;;14.30;99.90;;;;;;5061848;28;20171;-81
2021/05/27 01:52:26;;;;;;;6.60;4.93;;;14.30;99.90;;;;;;5039238;28;20537;-81
2021/05/27 01:54:53;;;;;;;7.95;5.05;;;14.20;99.90;;;;;;5074214;28;20241;-81
2021/05/27 01:57:18;;;;;;;5.40;4.90;;;14.30;99.90;;;;;;5073847;28;20646;-81
2021/05/27 01:59:44;;;;;;;5.17;4.57;;;14.20;99.90;;;;;;5056305;28;20176;-81
2021/05/27 02:02:13;;;;;;;5.43;4.88;;;14.20;99.90;;;;;;5055802;28;20616;-80
2021/05/27 02:04:42;;;;;;;5.57;5.03;;;14.20;99.90;;;;;;5056735;28;20164;-80
2021/05/27 02:07:10;;;;;;;5.13;4.63;;;14.20;99.90;;;;;;5073500;28;20165;-81
2021/05/27 02:09:36;;;;;;;6.25;4.47;;;14.10;99.90;;;;;;5055988;28;20177;-80
2021/05/27 02:12:03;;;;;;;7.13;5.28;;;14.10;99.90;;;;;;5039388;28;20263;-80
2021/05/27 02:14:29;;;;;;;5.28;4.78;;;14.10;99.90;;;;;;5056043;28;20247;-80
2021/05/27 02:16:55;;;;;;;5.50;4.67;;;14.10;99.90;;;;;;5055458;28;20251;-80
2021/05/27 02:19:21;;;;;;;5.82;5.25;;;14.10;99.90;;;;;;5055810;28;20233;-81
2021/05/27 02:21:50;;;;;;;5.72;5.13;;;14.10;99.90;;;;;;5073620;28;20248;-80
2021/05/27 02:24:22;;;;;;;6.38;4.45;;;14.10;99.90;;;;;;5055703;28;20243;-82
2021/05/27 02:26:48;;;;;;;5.40;4.90;;;14.10;99.90;;;;;;5044140;28;20179;-80
2021/05/27 02:29:17;;;;;;;5.20;4.75;;;14.10;99.90;;;;;;5055559;28;20165;-80
2021/05/27 02:31:44;;;;;;;5.07;4.68;;;14.10;99.90;;;;;;5073052;28;20294;-80
2021/05/27 02:34:16;;;;;;;5.93;5.40;;;14.10;99.90;;;;;;5055253;28;20196;-80
2021/05/27 02:36:44;;;;;;;6.40;5.15;;;14.10;99.90;;;;;;5072783;28;20234;-80
2021/05/27 02:39:12;;;;;;;5.43;4.93;;;14.10;99.90;;;;;;5065695;28;20181;-80
2021/05/27 02:41:51;;;;;;;5.40;4.90;;;14.10;99.90;;;;;;5035449;28;20184;-80
2021/05/27 02:44:21;;;;;;;6.00;4.50;;;14.10;99.90;;;;;;5034864;28;20205;-80
2021/05/27 02:46:50;;;;;;;6.10;5.03;;;14.10;99.90;;;;;;5034573;28;20207;-80
2021/05/27 02:49:17;;;;;;;5.60;5.10;;;14.10;99.90;;;;;;5035044;28;20169;-79
2021/05/27 02:51:44;;;;;;;6.22;4.88;;;14.10;99.90;;;;;;5052728;28;20208;-80
2021/05/27 02:54:11;;;;;;;8.15;5.57;;;14.10;99.90;;;;;;5052645;28;20193;-80
2021/05/27 02:56:39;;;;;;;6.03;5.45;;;14.20;99.90;;;;;;5034386;28;20211;-80
2021/05/27 02:59:06;;;;;;;6.65;6.05;;;14.20;99.90;;;;;;5018294;28;20273;-80
2021/05/27 03:01:32;;;;;;;5.43;4.93;;;14.20;99.90;;;;;;5018140;28;20169;-80
2021/05/27 03:03:59;;;;;;;9.07;5.30;;;14.20;99.90;;;;;;5023030;28;20576;-81
2021/05/27 03:06:26;;;;;;;5.53;5.03;;;14.20;99.90;;;;;;5033978;28;20243;-80
2021/05/27 03:08:54;;;;;;;6.45;5.13;;;14.20;99.90;;;;;;5034536;28;20632;-82
2021/05/27 03:11:21;;;;;;;6.60;6.00;;;14.20;99.90;;;;;;5017862;28;20173;-81
2021/05/27 03:13:50;;;;;;;5.22;4.80;;;14.10;99.90;;;;;;5034245;28;20228;-82
2021/05/27 03:16:17;;;;;;;7.82;6.13;;;14.10;99.90;;;;;;5034005;28;20196;-81
2021/05/27 03:18:44;;;;;;;6.57;5.20;;;14.10;99.90;;;;;;5034267;28;20169;-81
2021/05/27 03:21:10;;;;;;;6.53;5.93;;;14.10;99.90;;;;;;5034572;28;20191;-81
2021/05/27 03:23:37;;;;;;;7.25;5.90;;;14.10;99.90;;;;;;5034124;28;20270;-81
2021/05/27 03:26:04;;;;;;;5.72;5.18;;;14.10;99.90;;;;;;5034177;28;20183;-82
2021/05/27 03:28:31;;;;;;;5.88;5.38;;;14.10;99.90;;;;;;5051992;28;20303;-82
2021/05/27 03:31:07;;;;;;;6.70;6.18;;;14.10;99.90;;;;;;5033467;28;20659;-82
2021/05/27 03:33:37;;;;;;;8.30;5.95;;;14.10;99.90;;;;;;5035001;28;20227;-82
2021/05/27 03:36:04;;;;;;;7.03;6.13;;;14.10;99.90;;;;;;5054390;28;20181;-82
2021/05/27 03:38:32;;;;;;;6.20;5.70;;;14.10;99.90;;;;;;5017120;28;20599;-82
2021/05/27 03:40:57;;;;;;;6.60;5.93;;;14.10;99.90;;;;;;5039759;28;20165;-82
2021/05/27 03:43:24;;;;;;;5.85;5.35;;;14.10;99.90;;;;;;5033392;28;20259;-82
2021/05/27 03:45:51;;;;;;;6.40;5.80;;;14.10;99.90;;;;;;5051687;28;20526;-81
2021/05/27 03:48:19;;;;;;;9.40;6.25;;;14.10;99.90;;;;;;5017501;28;20210;-81
2021/05/27 03:50:45;;;;;;;7.90;6.63;;;14.10;99.90;;;;;;5033855;28;20247;-81
2021/05/27 03:53:16;;;;;;;7.72;6.13;;;14.10;99.90;;;;;;5051579;28;20196;-81
2021/05/27 03:55:49;;;;;;;6.88;6.18;;;14.00;99.90;;;;;;5033821;28;20231;-81
2021/05/27 04:01:01;;;;;;;7.25;6.18;;;14.00;99.90;;;;;;5033575;28;20219;-81
2021/05/27 04:09:12;;;;;;;8.65;5.97;;;14.00;99.90;;;;;;5051589;28;20183;-81
2021/05/27 04:11:38;;;;;;;6.80;5.47;;;13.90;99.90;;;;;;5051502;28;20161;-81
2021/05/27 04:14:04;;;;;;;10.87;6.63;;;13.90;99.90;;;;;;5033365;28;20517;-81
2021/05/27 04:16:30;;;;;;;7.60;6.80;;;13.90;99.90;;;;;;5033966;28;20200;-80
2021/05/27 04:18:55;;;;;;;6.30;5.70;;;13.90;99.90;;;;;;5056016;28;20172;-81
2021/05/27 04:21:21;;;;;;;6.63;5.67;;;13.90;99.90;;;;;;5051415;28;20200;-81
2021/05/27 04:23:50;;;;;;;7.17;6.47;;;13.90;99.90;;;;;;5051122;28;20208;-80
2021/05/27 04:26:16;;;;;;;6.85;5.43;;;13.90;99.90;;;;;;5051205;28;20599;-81
2021/05/27 04:28:44;;;;;;;5.45;4.90;;;14.00;99.90;;;;;;5051015;28;20168;-81
2021/05/27 04:31:13;;;;;;;6.93;6.22;;;14.00;99.90;;;;;;5051103;28;20259;-81
2021/05/27 04:33:49;;;;;;;7.30;6.28;;;14.00;99.90;;;;;;5051572;28;20184;-81
2021/05/27 04:36:17;;;;;;;5.72;5.22;;;14.00;99.90;;;;;;5033278;28;20180;-81
2021/05/27 04:38:44;;;;;;;6.85;6.25;;;14.00;99.90;;;;;;5016641;28;20251;-81
2021/05/27 04:41:10;;;;;;;6.43;5.88;;;14.10;99.90;;;;;;5051117;28;20567;-80
2021/05/27 04:43:39;;;;;;;6.05;5.55;;;14.10;99.90;;;;;;5033468;28;20572;-81
2021/05/27 04:46:06;;;;;;;8.25;5.72;;;14.10;99.90;;;;;;5033162;28;20180;-81
2021/05/27 04:48:32;;;;;;;5.90;5.30;;;14.10;99.90;;;;;;5051066;28;20251;-80
2021/05/27 04:50:58;;;;;;;7.00;6.27;;;14.10;99.90;;;;;;5051299;28;20200;-81
2021/05/27 04:53:26;;;;;;;6.47;5.90;;;14.10;99.90;;;;;;5051411;28;20185;-81
2021/05/27 04:55:52;;;;;;;6.88;6.10;;;14.10;99.90;;;;;;5058675;28;20168;-82
2021/05/27 04:58:18;;;;;;;7.00;6.40;;;14.20;99.90;;;;;;5045790;28;20168;-81
2021/05/27 05:00:44;;;;;;;7.95;6.05;;;14.20;99.90;;;;;;5062683;28;20177;-82
2021/05/27 05:03:10;;;;;;;7.83;6.70;;;14.20;99.90;;;;;;5055084;28;20207;-82
2021/05/27 05:05:37;;;;;;;8.53;6.47;;;14.20;99.90;;;;;;5037261;28;20567;-82
2021/05/27 05:08:04;;;;;;;7.22;6.63;;;14.20;99.90;;;;;;5054612;28;20525;-82
2021/05/27 05:10:30;;;;;;;7.60;6.53;;;14.30;99.90;;;;;;5037049;28;20581;-82
2021/05/27 05:12:56;;;;;;;9.55;7.05;;;14.30;99.90;;;;;;5036825;28;20200;-81
2021/05/27 05:15:27;;;;;;;7.65;6.85;;;14.30;99.90;;;;;;5054922;28;20569;-81
2021/05/27 05:18:02;;;;;;;9.32;6.57;;;14.30;99.90;;;;;;5054413;28;20743;-81
2021/05/27 05:20:33;;;;;;;7.28;6.25;;;14.30;99.90;;;;;;5036926;28;20177;-81
2021/05/27 05:22:59;;;;;;;7.22;6.28;;;14.30;99.90;;;;;;5054260;28;20219;-81
2021/05/27 05:25:26;;;;;;;6.72;6.13;;;14.40;99.90;;;;;;5054443;28;20180;-81
2021/05/27 05:27:53;;;;;;;7.57;6.70;;;14.40;99.90;;;;;;5054156;28;20177;-81
2021/05/27 05:30:20;;;;;;;10.07;6.70;;;14.40;99.90;;;;;;5036729;28;20201;-81
2021/05/27 05:32:47;;;;;;;7.78;6.32;;;14.40;99.90;;;;;;5059964;28;20189;-81
2021/05/27 05:35:15;;;;;;;7.75;7.13;;;14.40;99.90;;;;;;5019992;28;20230;-81
2021/05/27 05:37:41;;;;;;;8.88;8.05;;;14.40;99.90;;;;;;5036274;28;20165;-81
2021/05/27 05:40:11;;;;;;;7.55;6.85;;;14.40;99.90;;;;;;5020600;28;20180;-81
2021/05/27 05:42:40;;;;;;;8.90;7.97;;;14.40;99.90;;;;;;5054117;28;20197;-81
2021/05/27 05:45:10;;;;;;;9.88;7.82;;;14.40;99.90;;;;;;5036351;28;20260;-80
2021/05/27 05:47:36;;;;;;;13.77;12.57;;;14.40;99.90;;;;;;5035990;28;20168;-80
2021/05/27 05:50:03;;;;;;;9.18;8.18;;;14.40;99.90;;;;;;5054257;28;20212;-80
2021/05/27 05:52:30;;;;;;;8.15;7.35;;;14.40;99.90;;;;;;5036285;28;20196;-79
2021/05/27 05:54:56;;;;;;;8.30;7.50;;;14.40;99.90;;;;;;5054093;28;20169;-79
2021/05/27 05:57:21;;;;;;;12.13;8.10;;;14.40;99.90;;;;;;5053416;28;20260;-78
2021/05/27 05:59:47;;;;;;;8.17;7.37;;;14.40;99.90;;;;;;5054006;28;20268;-79
2021/05/27 06:02:13;;;;;;;9.53;7.50;;;14.40;99.90;;;;;;5053695;28;20166;-78
2021/05/27 06:04:39;;;;;;;10.60;9.02;;;14.40;99.90;;;;;;5044848;28;20252;-77
2021/05/27 06:07:22;;;;;;;9.05;8.13;;;14.40;99.90;;;;;;5052857;28;20255;-78
2021/05/27 06:09:48;;;;;;;8.90;8.10;;;14.40;99.90;;;;;;5077468;28;20196;-79
2021/05/27 06:12:14;;;;;;;8.40;7.67;;;14.40;99.90;;;;;;5068283;28;20168;-78
2021/05/27 06:14:39;;;;;;;8.40;7.60;;;14.40;99.90;;;;;;5066757;28;20168;-79
2021/05/27 06:17:06;;;;;;;7.30;6.60;;;14.40;99.90;;;;;;5073158;28;20227;-78
2021/05/27 06:19:32;;;;;;;7.65;6.95;;;14.40;99.90;;;;;;5055247;28;20173;-78
2021/05/27 06:22:03;;;;;;;8.25;7.45;;;14.40;99.90;;;;;;5073850;28;20164;-78
2021/05/27 06:24:49;;;;;;;7.88;7.13;;;14.50;99.90;;;;;;5056044;28;20262;-78
2021/05/27 06:27:15;;;;;;;8.07;6.83;;;14.50;99.90;;;;;;5038729;28;20290;-77
2021/05/27 06:29:40;;;;;;;9.97;6.10;;;14.50;99.90;;;;;;5073428;28;20558;-78
2021/05/27 06:32:06;;;;;;;7.40;6.63;;;14.50;99.90;;;;;;5073474;28;20172;-78
2021/05/27 06:34:32;;;;;;;7.60;6.80;;;14.50;99.90;;;;;;5073071;28;20171;-78
2021/05/27 06:36:58;;;;;;;9.97;7.57;;;14.40;99.90;;;;;;5053373;28;20168;-77
2021/05/27 06:39:24;;;;;;;11.70;7.30;;;14.40;99.90;;;;;;5072115;28;20170;-78
2021/05/27 06:41:50;;;;;;;9.20;8.30;;;14.30;99.90;;;;;;5073383;28;20157;-78
2021/05/27 06:44:16;;;;;;;9.10;6.67;;;14.30;99.90;;;;;;5055509;28;20719;-78
2021/05/27 06:46:42;;;;;;;9.02;7.10;;;14.30;99.90;;;;;;5057612;28;20583;-78
2021/05/27 06:49:07;;;;;;;8.70;7.43;;;14.30;99.90;;;;;;5052169;28;20168;-79
2021/05/27 06:51:34;;;;;;;7.17;6.47;;;14.20;99.90;;;;;;5061677;28;20248;-78
2021/05/27 06:54:00;;;;;;;7.70;7.00;;;14.20;99.90;;;;;;5061572;28;20199;-79
2021/05/27 06:56:26;;;;;;;7.68;6.97;;;14.20;99.90;;;;;;5034678;28;20165;-79
2021/05/27 06:58:52;;;;;;;8.07;7.23;;;14.20;99.90;;;;;;5018672;28;20640;-79
2021/05/27 07:01:18;;;;;;;10.87;8.27;;;14.20;99.90;;;;;;5035072;28;20215;-78
2021/05/27 07:03:44;;;;;;;8.10;6.97;;;14.10;99.90;;;;;;5034746;28;20729;-78
2021/05/27 07:06:10;;;;;;;12.25;7.90;;;14.10;99.90;;;;;;5058334;28;20243;-78
2021/05/27 07:08:36;;;;;;;8.03;6.17;;;14.10;99.90;;;;;;5047156;28;20248;-79
2021/05/27 07:11:02;;;;;;;14.77;7.97;;;14.10;99.90;;;;;;5052815;28;20165;-79
2021/05/27 07:13:29;;;;;;;10.43;8.65;;;14.10;99.90;;;;;;5052295;28;20235;-80
2021/05/27 07:15:54;;;;;;;7.40;6.20;;;14.20;99.90;;;;;;5052427;28;20201;-80
2021/05/27 07:18:20;;;;;;;9.23;8.10;;;14.20;99.90;;;;;;5052129;28;20196;-81
2021/05/27 07:20:46;;;;;;;8.37;7.47;;;14.20;99.90;;;;;;5052743;28;20169;-81
2021/05/27 07:23:12;;;;;;;7.50;6.80;;;14.20;99.90;;;;;;5038890;28;20192;-81
2021/05/27 07:25:37;;;;;;;8.03;7.23;;;14.30;99.90;;;;;;5034521;28;20171;-79
2021/05/27 07:28:04;;;;;;;8.27;7.27;;;14.40;99.90;;;;;;5052141;28;20655;-79
2021/05/27 07:30:33;;;;;;;9.07;7.05;;;14.50;99.90;;;;;;5052114;28;20686;-79
2021/05/27 07:32:59;;;;;;;9.38;7.20;;;14.50;99.90;;;;;;5051977;28;20242;-79
2021/05/27 07:35:26;;;;;;;11.60;6.97;;;14.60;99.90;;;;;;5052009;28;20260;-79
2021/05/27 07:37:53;;;;;;;7.70;7.00;;;14.70;99.90;;;;;;5051903;28;20181;-80
2021/05/27 07:40:19;;;;;;;7.20;6.60;;;14.70;99.90;;;;;;5052432;28;20471;-79
2021/05/27 07:42:45;;;;;;;8.30;7.37;;;14.70;99.90;;;;;;5046013;28;20207;-79
2021/05/27 07:45:11;;;;;;;8.43;6.90;;;14.80;99.90;;;;;;5054229;28;20566;-79
2021/05/27 07:47:36;;;;;;;8.00;7.17;;;14.80;99.90;;;;;;5071894;28;20491;-78
2021/05/27 07:50:04;;;;;;;8.63;7.40;;;14.80;99.90;;;;;;5054254;28;20559;-79
2021/05/27 07:52:30;;;;;;;11.00;9.90;;;14.80;99.90;;;;;;5071952;28;20192;-78
2021/05/27 07:54:56;;;;;;;10.57;9.47;;;14.90;99.90;;;;;;5037486;28;20261;-79
2021/05/27 07:57:22;;;;;;;8.97;8.00;;;14.90;99.90;;;;;;5065717;28;20165;-79
2021/05/27 07:59:48;;;;;;;7.65;6.93;;;14.90;99.90;;;;;;5012368;28;20560;-79
2021/05/27 08:02:14;;;;;;;11.27;9.53;;;14.90;99.90;;;;;;5055374;28;20251;-79
2021/05/27 08:04:42;;;;;;;8.32;7.25;;;14.90;99.90;;;;;;5054070;28;20166;-80
2021/05/27 08:07:09;;;;;;;10.27;8.23;;;14.80;99.90;;;;;;5052787;28;20260;-79
2021/05/27 08:09:35;;;;;;;8.82;6.82;;;14.80;99.90;;;;;;5053635;28;20165;-79
2021/05/27 08:12:02;;;;;;;10.20;9.30;;;14.70;99.90;;;;;;5032941;28;20204;-80
2021/05/27 08:14:27;;;;;;;9.05;8.15;;;14.70;99.90;;;;;;5051535;28;20189;-80
2021/05/27 08:16:53;;;;;;;13.37;7.07;;;14.70;99.90;;;;;;5051140;28;20173;-80
2021/05/27 08:19:19;;;;;;;7.33;5.63;;;14.60;99.90;;;;;;5033552;28;20625;-79
2021/05/27 08:21:45;;;;;;;10.27;6.60;;;14.60;99.90;;;;;;5033373;28;20587;-79
2021/05/27 08:24:11;;;;;;;9.13;5.80;;;14.60;99.90;;;;;;5050970;28;20204;-79
2021/05/27 08:26:36;;;;;;;8.47;5.23;;;14.60;99.90;;;;;;5052029;28;20571;-78
2021/05/27 08:29:03;;;;;;;9.83;4.50;;;14.60;99.90;;;;;;5053635;28;20165;-80
2021/05/27 08:31:30;;;;;;;7.57;5.07;;;14.60;99.90;;;;;;5033646;28;20173;-78
2021/05/27 08:33:57;;;;;;;6.32;4.93;;;14.60;99.90;;;;;;5051117;28;20193;-78
2021/05/27 08:36:22;;;;;;;6.50;4.97;;;14.50;99.90;;;;;;5035173;28;20177;-78
2021/05/27 08:38:49;;;;;;;8.95;6.07;;;14.60;99.90;;;;;;5036963;28;20173;-78
2021/05/27 08:41:18;;;;;;;9.45;6.03;;;14.60;99.90;;;;;;5036436;28;20263;-81
2021/05/27 08:43:49;;;;;;;8.20;6.80;;;14.60;99.90;;;;;;5063697;28;20192;-80
2021/05/27 08:46:16;;;;;;;5.93;5.38;;;14.70;99.90;;;;;;5067610;28;20205;-80
2021/05/27 08:48:43;;;;;;;6.20;4.75;;;14.70;99.90;;;;;;5079777;28;20168;-80
2021/05/27 08:51:10;;;;;;;9.05;4.95;;;14.80;99.90;;;;;;5077186;28;20644;-80
2021/05/27 08:53:35;;;;;;;7.43;5.18;;;14.80;99.90;;;;;;5058480;28;20232;-81
2021/05/27 08:56:01;;;;;;;8.90;5.10;;;14.90;99.90;;;;;;5072228;28;20562;-81
2021/05/27 08:58:27;;;;;;;7.85;5.10;;;15.00;99.90;;;;;;5038966;28;20260;-81
2021/05/27 09:00:53;;;;;;;14.53;5.70;;;15.00;99.90;;;;;;5034427;28;20363;-81
2021/05/27 09:03:19;;;;;;;12.20;4.87;;;15.10;99.90;;;;;;5052932;28;20196;-81
2021/05/27 09:05:46;;;;;;;5.80;4.18;;;15.10;99.90;;;;;;5056206;28;20578;-76
2021/05/27 09:08:44;;;;;;;9.27;6.50;;;15.10;99.90;;;;;;5070603;28;20522;-76
2021/05/27 09:11:11;;;;;;;8.87;7.10;;;15.20;99.90;;;;;;5036720;28;20271;-76
2021/05/27 09:13:49;;;;;;;7.20;5.90;;;15.20;99.90;;;;;;5074793;28;20610;-75
2021/05/27 09:16:15;;;;;;;8.97;5.83;;;15.20;99.90;;;;;;5054885;28;20570;-78
2021/05/27 09:18:42;;;;;;;6.07;4.40;;;15.30;99.90;;;;;;5071649;28;20635;-78
2021/05/27 09:21:12;;;;;;;7.73;5.30;;;15.30;99.90;;;;;;5054318;28;20932;-77
2021/05/27 09:23:49;;;;;;;9.17;5.73;;;15.30;99.90;;;;;;5054956;28;20684;-77
2021/05/27 09:26:16;;;;;;;8.97;6.20;;;15.30;99.90;;;;;;5071807;28;20570;-75
2021/05/27 09:28:44;;;;;;;5.53;5.03;;;15.40;99.90;;;;;;5036079;28;21125;-74
2021/05/27 09:31:19;;;;;;;8.77;5.97;;;15.40;99.90;;;;;;5052803;28;20168;-74
2021/05/27 09:34:11;;;;;;;6.88;4.95;;;15.40;99.90;;;;;;5070793;28;20708;-75
2021/05/27 09:36:36;;;;;;;7.60;4.33;;;15.40;99.90;;;;;;5070386;28;20168;-74
2021/05/27 09:39:03;;;;;;;7.10;4.80;;;15.30;99.90;;;;;;5052785;28;20569;-74
2021/05/27 09:41:31;;;;;;;6.60;4.83;;;15.30;99.90;;;;;;5070621;28;20173;-75
2021/05/27 09:44:16;;;;;;;5.40;4.90;;;15.20;99.90;;;;;;5055999;28;20629;-75
2021/05/27 09:46:49;;;;;;;6.30;5.70;;;15.20;99.90;;;;;;5053811;28;20575;-75
2021/05/27 09:49:14;;;;;;;7.23;5.10;;;15.10;99.90;;;;;;5052733;28;21149;-75
2021/05/27 09:51:40;;;;;;;4.87;4.37;;;15.10;99.90;;;;;;5058519;28;20730;-75
2021/05/27 09:54:06;;;;;;;5.57;4.20;;;15.00;99.90;;;;;;5053734;28;20200;-75
2021/05/27 09:56:33;;;;;;;8.23;4.27;;;14.90;99.90;;;;;;5053508;28;20603;-75
2021/05/27 09:58:59;;;;;;;6.13;3.53;;;14.90;99.90;;;;;;5055189;28;20254;-75
2021/05/27 10:01:25;;;;;;;4.90;2.88;;;14.80;99.90;;;;;;5055921;28;20218;-75
2021/05/27 10:03:51;;;;;;;5.03;3.07;;;14.80;99.90;;;;;;5055697;28;20212;-74
2021/05/27 10:06:17;;;;;;;5.93;4.30;;;14.70;99.90;;;;;;5055498;28;20510;-75
2021/05/27 10:08:50;;;;;;;5.67;4.00;;;14.70;99.90;;;;;;5055356;28;20234;-75
2021/05/27 10:11:17;;;;;;;6.68;4.50;;;14.70;99.90;;;;;;5073793;28;20230;-75
2021/05/27 10:13:43;;;;;;;6.40;3.90;;;14.60;99.90;;;;;;5055494;28;20683;-75
2021/05/27 10:16:16;;;;;;;6.00;4.50;;;14.60;99.90;;;;;;5055716;28;20673;-74
2021/05/27 10:18:43;;;;;;;4.30;3.20;;;14.60;99.90;;;;;;5073408;28;20601;-74
2021/05/27 10:21:11;;;;;;;4.45;3.30;;;14.60;99.90;;;;;;5073587;28;20584;-74
2021/05/27 10:23:37;;;;;;;7.78;4.57;;;14.50;99.90;;;;;;5073121;28;20196;-74
2021/05/27 10:26:04;;;;;;;5.15;3.90;;;14.50;99.90;;;;;;5055739;28;20243;-74
2021/05/27 10:28:31;;;;;;;7.10;5.50;;;14.50;99.90;;;;;;5078509;28;20195;-74
2021/05/27 10:30:58;;;;;;;5.75;4.43;;;14.40;99.90;;;;;;5073462;28;20196;-75
2021/05/27 10:33:25;;;;;;;6.45;4.10;;;14.40;99.90;;;;;;5073302;28;20185;-76
2021/05/27 10:35:52;;;;;;;8.70;5.28;;;14.40;99.90;;;;;;5055862;28;20230;-76
2021/05/27 10:38:38;;;;;;;5.68;4.40;;;14.40;99.90;;;;;;5072947;28;20557;-76
2021/05/27 10:41:09;;;;;;;6.25;4.35;;;14.40;99.90;;;;;;5073209;28;20172;-77
2021/05/27 10:43:36;;;;;;;6.32;4.47;;;14.40;99.90;;;;;;5072623;28;20188;-76
2021/05/27 10:46:05;;;;;;;11.52;4.90;;;14.40;99.90;;;;;;5055152;28;20169;-77
2021/05/27 10:48:35;;;;;;;10.20;4.30;;;14.40;99.90;;;;;;5054685;28;20168;-77
2021/05/27 10:51:13;;;;;;;7.45;4.43;;;14.40;99.90;;;;;;5072630;28;20191;-77
2021/05/27 10:53:48;;;;;;;5.22;3.80;;;14.40;99.90;;;;;;5072390;28;20195;-76
2021/05/27 10:56:16;;;;;;;6.80;3.55;;;14.50;99.90;;;;;;5072898;28;20275;-76
2021/05/27 10:58:48;;;;;;;7.07;3.35;;;14.50;99.90;;;;;;5055777;28;20173;-76
2021/05/27 11:01:17;;;;;;;9.43;3.80;;;14.50;99.90;;;;;;5062539;28;20199;-80
2021/05/27 11:03:53;;;;;;;6.93;4.05;;;14.50;99.90;;;;;;5045238;28;20205;-78
2021/05/27 11:06:27;;;;;;;5.70;4.60;;;14.50;99.90;;;;;;5043115;28;20633;-79
2021/05/27 11:09:16;;;;;;;5.38;4.20;;;14.50;99.90;;;;;;5044760;28;20172;-79
2021/05/27 11:12:00;;;;;;;9.00;4.90;;;14.50;99.90;;;;;;5077874;28;20172;-78
2021/05/27 11:14:35;;;;;;;6.35;4.43;;;14.50;99.90;;;;;;5077996;28;20203;-78
2021/05/27 11:17:04;;;;;;;5.25;4.63;;;14.50;99.90;;;;;;5079196;28;20179;-79
2021/05/27 11:22:28;;;;;;;3.75;3.35;;;14.50;99.90;;;;;;5062764;28;20165;-79
2021/05/27 11:27:35;;;;;;;7.57;4.32;;;14.50;99.90;;;;;;5078319;28;20207;-80
2021/05/27 11:30:13;;;;;;;13.02;11.07;;;14.50;99.90;;;;;;5075321;28;20538;-80
2021/05/27 11:32:39;;;;;;;8.13;5.95;;;14.50;99.90;;;;;;5062029;28;20191;-79
2021/05/27 11:35:05;;;;;;;8.90;5.90;;;14.50;99.90;;;;;;5078965;28;20161;-80
2021/05/27 11:37:37;;;;;;;7.93;4.88;;;14.40;99.90;;;;;;5080679;28;20204;-81
2021/05/27 11:40:06;;;;;;;6.68;5.85;;;14.50;99.90;;;;;;5077647;28;20229;-80
2021/05/27 11:42:36;;;;;;;8.93;6.25;;;14.50;99.90;;;;;;5063456;28;20563;-80
2021/05/27 11:45:06;;;;;;;7.00;6.00;;;14.60;99.90;;;;;;5059727;28;20232;-80
2021/05/27 11:47:32;;;;;;;10.00;5.90;;;14.60;99.90;;;;;;5079996;28;20157;-80
2021/05/27 11:50:04;;;;;;;10.50;6.87;;;14.70;99.90;;;;;;5055155;28;20575;-82
2021/05/27 11:52:29;;;;;;;7.60;5.83;;;14.70;99.90;;;;;;5073409;28;20606;-80
2021/05/27 11:54:58;;;;;;;11.20;8.33;;;14.70;99.90;;;;;;5073513;28;20571;-80
2021/05/27 11:57:39;;;;;;;7.78;6.28;;;14.80;99.90;;;;;;5055255;28;20235;-80
2021/05/27 12:00:10;;;;;;;7.63;5.30;;;14.80;99.90;;;;;;5062380;28;20167;-81
2021/05/27 12:02:54;;;;;;;5.93;4.57;;;14.80;99.90;;;;;;5083697;28;20200;-80
2021/05/27 12:05:22;;;;;;;6.57;5.40;;;14.80;99.90;;;;;;5077037;28;20172;-80
2021/05/27 12:08:03;;;;;;;5.07;4.13;;;14.80;99.90;;;;;;5054644;28;20208;-79
2021/05/27 12:10:37;;;;;;;6.93;4.80;;;14.80;99.90;;;;;;5074146;28;20934;-79
2021/05/27 12:13:14;;;;;;;6.93;4.50;;;14.80;99.90;;;;;;5072425;28;20272;-78
2021/05/27 12:15:44;;;;;;;6.13;4.10;;;14.80;99.90;;;;;;5060226;28;20176;-78
2021/05/27 12:18:14;;;;;;;7.43;5.00;;;14.70;99.90;;;;;;5076402;28;20219;-78
2021/05/27 12:20:42;;;;;;;6.00;4.75;;;14.70;99.90;;;;;;5067314;28;20179;-77
2021/05/27 12:23:15;;;;;;;6.50;4.10;;;14.60;99.90;;;;;;5083780;28;20212;-77
2021/05/27 12:25:43;;;;;;;5.65;4.85;;;14.60;99.90;;;;;;5080228;28;20253;-78
2021/05/27 12:28:19;;;;;;;5.78;5.10;;;14.60;99.90;;;;;;5066102;28;20169;-77
2021/05/27 12:30:53;;;;;;;10.40;6.20;;;14.60;99.90;;;;;;5045332;28;20169;-78
2021/05/27 12:33:20;;;;;;;8.18;5.60;;;14.60;99.90;;;;;;5027431;28;20268;-77
2021/05/27 12:35:46;;;;;;;10.73;5.90;;;14.60;99.90;;;;;;5037570;28;20180;-78
2021/05/27 12:38:28;;;;;;;7.05;6.35;;;14.60;99.90;;;;;;5055261;28;20161;-77
2021/05/27 12:40:58;;;;;;;8.13;6.25;;;14.60;99.90;;;;;;5035083;28;20214;-78
2021/05/27 12:43:40;;;;;;;8.45;5.80;;;14.60;99.90;;;;;;5035164;28;20204;-79
2021/05/27 12:46:08;;;;;;;8.10;6.28;;;14.60;99.90;;;;;;5022561;28;20311;-81
2021/05/27 12:48:49;;;;;;;8.60;6.35;;;14.50;99.90;;;;;;5052961;28;20169;-81
2021/05/27 12:51:16;;;;;;;12.57;7.70;;;14.60;99.90;;;;;;5034828;28;20173;-81
2021/05/27 12:53:48;;;;;;;10.55;8.52;;;14.70;99.90;;;;;;5052785;28;20553;-81
2021/05/27 12:56:20;;;;;;;10.55;7.82;;;14.80;99.90;;;;;;5056781;28;20179;-80
2021/05/27 12:58:55;;;;;;;8.02;6.80;;;14.90;99.90;;;;;;5035089;28;20282;-81
2021/05/27 13:01:35;;;;;;;7.78;5.25;;;14.90;99.90;;;;;;5074249;28;20255;-80
2021/05/27 13:04:03;;;;;;;6.82;5.47;;;14.90;99.90;;;;;;5080446;28;20206;-80
2021/05/27 13:06:31;;;;;;;9.23;5.82;;;14.80;99.90;;;;;;5071188;28;20157;-81
2021/05/27 13:09:03;;;;;;;7.30;6.18;;;14.80;99.90;;;;;;5071393;28;20221;-81